sensor_id;sensor_type;location;lat;lon;timestamp;P1;durP1;ratioP1;P2;durP2;ratioP2
50681;SDS011;36779;52.168;20.878;2023-02-01T00:00:11;10.70;;;4.30;;
50681;SDS011;36779;52.168;20.878;2023-02-01T00:03:01;8.40;;;4.00;;
50681;SDS011;36779;52.168;20.878;2023-02-01T00:05:30;8.10;;;4.30;;
50681;SDS011;36779;52.168;20.878;2023-02-01T00:07:59;8.00;;;3.30;;
50681;SDS011;36779;52.168;20.878;2023-02-01T00:10:28;6.10;;;3.30;;
50681;SDS011;36779;52.168;20.878;2023-02-01T00:12:57;6.10;;;3.00;;
50681;SDS011;36779;52.168;20.878;2023-02-01T00:15:28;6.60;;;3.40;;
50681;SDS011;36779;52.168;20.878;2023-02-01T00:17:57;5.80;;;3.00;;
50681;SDS011;36779;52.168;20.878;2023-02-01T00:20:30;6.50;;;2.90;;
50681;SDS011;36779;52.168;20.878;2023-02-01T00:23:00;6.50;;;2.90;;
50681;SDS011;36779;52.168;20.878;2023-02-01T00:25:29;5.90;;;3.00;;
50681;SDS011;36779;52.168;20.878;2023-02-01T00:27:59;5.00;;;2.70;;
50681;SDS011;36779;52.168;20.878;2023-02-01T00:30:28;5.90;;;2.60;;
50681;SDS011;36779;52.168;20.878;2023-02-01T00:32:57;6.20;;;3.20;;
50681;SDS011;36779;52.168;20.878;2023-02-01T00:35:27;8.00;;;2.90;;
50681;SDS011;36779;52.168;20.878;2023-02-01T00:37:56;5.10;;;2.80;;
50681;SDS011;36779;52.168;20.878;2023-02-01T00:40:27;6.30;;;3.50;;
50681;SDS011;36779;52.168;20.878;2023-02-01T00:42:56;4.80;;;2.80;;
50681;SDS011;36779;52.168;20.878;2023-02-01T00:45:26;8.10;;;3.20;;
50681;SDS011;36779;52.168;20.878;2023-02-01T00:47:55;3.80;;;1.70;;
50681;SDS011;36779;52.168;20.878;2023-02-01T00:50:24;4.80;;;2.40;;
50681;SDS011;36779;52.168;20.878;2023-02-01T00:52:56;9.50;;;2.30;;
50681;SDS011;36779;52.168;20.878;2023-02-01T00:55:25;2.70;;;1.50;;
50681;SDS011;36779;52.168;20.878;2023-02-01T00:57:56;3.80;;;1.50;;
50681;SDS011;36779;52.168;20.878;2023-02-01T01:00:25;6.30;;;2.10;;
50681;SDS011;36779;52.168;20.878;2023-02-01T01:02:55;2.90;;;1.20;;
50681;SDS011;36779;52.168;20.878;2023-02-01T01:05:24;4.10;;;1.00;;
50681;SDS011;36779;52.168;20.878;2023-02-01T01:07:55;3.80;;;1.10;;
50681;SDS011;36779;52.168;20.878;2023-02-01T01:10:24;2.50;;;0.70;;
50681;SDS011;36779;52.168;20.878;2023-02-01T01:12:54;1.50;;;0.70;;
50681;SDS011;36779;52.168;20.878;2023-02-01T01:15:23;3.70;;;0.90;;
50681;SDS011;36779;52.168;20.878;2023-02-01T01:17:55;2.00;;;0.80;;
50681;SDS011;36779;52.168;20.878;2023-02-01T01:20:24;3.90;;;0.80;;
50681;SDS011;36779;52.168;20.878;2023-02-01T01:22:54;5.50;;;0.80;;
50681;SDS011;36779;52.168;20.878;2023-02-01T01:25:23;1.60;;;0.70;;
50681;SDS011;36779;52.168;20.878;2023-02-01T01:27:54;5.60;;;1.80;;
50681;SDS011;36779;52.168;20.878;2023-02-01T01:30:23;7.00;;;1.60;;
50681;SDS011;36779;52.168;20.878;2023-02-01T01:32:53;2.60;;;1.00;;
50681;SDS011;36779;52.168;20.878;2023-02-01T01:35:22;4.50;;;1.70;;
50681;SDS011;36779;52.168;20.878;2023-02-01T01:37:51;4.20;;;1.50;;
50681;SDS011;36779;52.168;20.878;2023-02-01T01:40:23;8.00;;;1.60;;
50681;SDS011;36779;52.168;20.878;2023-02-01T01:42:54;2.70;;;0.80;;
50681;SDS011;36779;52.168;20.878;2023-02-01T01:45:24;3.00;;;1.10;;
50681;SDS011;36779;52.168;20.878;2023-02-01T01:47:58;3.80;;;1.40;;
50681;SDS011;36779;52.168;20.878;2023-02-01T01:50:33;6.90;;;1.20;;
50681;SDS011;36779;52.168;20.878;2023-02-01T01:53:08;3.20;;;1.00;;
50681;SDS011;36779;52.168;20.878;2023-02-01T01:55:42;7.90;;;1.40;;
50681;SDS011;36779;52.168;20.878;2023-02-01T01:58:15;9.90;;;1.50;;
50681;SDS011;36779;52.168;20.878;2023-02-01T02:00:48;5.30;;;1.00;;
50681;SDS011;36779;52.168;20.878;2023-02-01T02:03:18;6.10;;;1.00;;
50681;SDS011;36779;52.168;20.878;2023-02-01T02:05:49;9.10;;;1.30;;
50681;SDS011;36779;52.168;20.878;2023-02-01T02:08:20;3.30;;;1.20;;
50681;SDS011;36779;52.168;20.878;2023-02-01T02:10:51;7.00;;;1.20;;
50681;SDS011;36779;52.168;20.878;2023-02-01T02:13:27;5.90;;;1.20;;
50681;SDS011;36779;52.168;20.878;2023-02-01T02:16:09;6.70;;;1.10;;
50681;SDS011;36779;52.168;20.878;2023-02-01T02:18:57;4.80;;;1.20;;
50681;SDS011;36779;52.168;20.878;2023-02-01T02:21:41;7.40;;;2.10;;
50681;SDS011;36779;52.168;20.878;2023-02-01T02:27:20;7.50;;;2.10;;
50681;SDS011;36779;52.168;20.878;2023-02-01T02:30:05;6.50;;;1.20;;
50681;SDS011;36779;52.168;20.878;2023-02-01T02:36:18;6.10;;;1.10;;
50681;SDS011;36779;52.168;20.878;2023-02-01T02:39:01;13.50;;;2.90;;
50681;SDS011;36779;52.168;20.878;2023-02-01T02:41:38;13.50;;;2.30;;
50681;SDS011;36779;52.168;20.878;2023-02-01T02:44:36;9.80;;;2.20;;
50681;SDS011;36779;52.168;20.878;2023-02-01T02:47:33;6.40;;;2.00;;
50681;SDS011;36779;52.168;20.878;2023-02-01T02:50:18;10.90;;;3.00;;
50681;SDS011;36779;52.168;20.878;2023-02-01T02:53:12;14.70;;;2.40;;
50681;SDS011;36779;52.168;20.878;2023-02-01T02:56:05;9.60;;;1.60;;
50681;SDS011;36779;52.168;20.878;2023-02-01T02:58:55;11.50;;;2.10;;
50681;SDS011;36779;52.168;20.878;2023-02-01T03:01:45;7.30;;;1.30;;
50681;SDS011;36779;52.168;20.878;2023-02-01T03:04:33;9.40;;;1.50;;
50681;SDS011;36779;52.168;20.878;2023-02-01T03:07:11;5.50;;;0.90;;
50681;SDS011;36779;52.168;20.878;2023-02-01T03:09:42;7.10;;;1.60;;
50681;SDS011;36779;52.168;20.878;2023-02-01T03:12:15;5.50;;;1.40;;
50681;SDS011;36779;52.168;20.878;2023-02-01T03:15:03;11.10;;;1.70;;
50681;SDS011;36779;52.168;20.878;2023-02-01T03:17:39;14.80;;;2.00;;
50681;SDS011;36779;52.168;20.878;2023-02-01T03:20:13;9.80;;;1.90;;
50681;SDS011;36779;52.168;20.878;2023-02-01T03:22:47;8.10;;;1.30;;
50681;SDS011;36779;52.168;20.878;2023-02-01T03:25:21;10.50;;;1.30;;
50681;SDS011;36779;52.168;20.878;2023-02-01T03:27:57;10.80;;;1.90;;
50681;SDS011;36779;52.168;20.878;2023-02-01T03:30:30;6.30;;;1.50;;
50681;SDS011;36779;52.168;20.878;2023-02-01T03:33:05;9.90;;;1.40;;
50681;SDS011;36779;52.168;20.878;2023-02-01T03:35:49;9.00;;;1.10;;
50681;SDS011;36779;52.168;20.878;2023-02-01T03:38:28;12.00;;;1.40;;
50681;SDS011;36779;52.168;20.878;2023-02-01T03:41:02;9.30;;;1.60;;
50681;SDS011;36779;52.168;20.878;2023-02-01T03:43:38;8.40;;;1.50;;
50681;SDS011;36779;52.168;20.878;2023-02-01T03:46:19;14.90;;;1.70;;
50681;SDS011;36779;52.168;20.878;2023-02-01T03:48:55;7.40;;;2.30;;
50681;SDS011;36779;52.168;20.878;2023-02-01T03:51:24;2.80;;;1.50;;
50681;SDS011;36779;52.168;20.878;2023-02-01T03:53:58;5.80;;;1.80;;
50681;SDS011;36779;52.168;20.878;2023-02-01T03:56:31;4.90;;;1.30;;
50681;SDS011;36779;52.168;20.878;2023-02-01T03:59:07;12.40;;;1.90;;
50681;SDS011;36779;52.168;20.878;2023-02-01T04:01:36;11.60;;;1.20;;
50681;SDS011;36779;52.168;20.878;2023-02-01T04:04:05;10.10;;;1.90;;
50681;SDS011;36779;52.168;20.878;2023-02-01T04:06:34;8.50;;;1.50;;
50681;SDS011;36779;52.168;20.878;2023-02-01T04:09:03;8.20;;;1.60;;
50681;SDS011;36779;52.168;20.878;2023-02-01T04:11:33;11.40;;;2.00;;
50681;SDS011;36779;52.168;20.878;2023-02-01T04:14:02;7.30;;;1.40;;
50681;SDS011;36779;52.168;20.878;2023-02-01T04:16:31;10.20;;;1.70;;
50681;SDS011;36779;52.168;20.878;2023-02-01T04:19:03;7.10;;;1.20;;
50681;SDS011;36779;52.168;20.878;2023-02-01T04:21:34;8.80;;;1.30;;
50681;SDS011;36779;52.168;20.878;2023-02-01T04:24:04;8.30;;;1.50;;
50681;SDS011;36779;52.168;20.878;2023-02-01T04:26:34;8.80;;;1.70;;
50681;SDS011;36779;52.168;20.878;2023-02-01T04:29:03;10.30;;;1.70;;
50681;SDS011;36779;52.168;20.878;2023-02-01T04:31:31;9.20;;;1.60;;
50681;SDS011;36779;52.168;20.878;2023-02-01T04:34:02;5.20;;;0.90;;
50681;SDS011;36779;52.168;20.878;2023-02-01T04:36:31;7.20;;;1.10;;
50681;SDS011;36779;52.168;20.878;2023-02-01T04:39:00;7.50;;;1.20;;
50681;SDS011;36779;52.168;20.878;2023-02-01T04:41:29;17.00;;;1.60;;
50681;SDS011;36779;52.168;20.878;2023-02-01T04:43:58;10.40;;;1.70;;
50681;SDS011;36779;52.168;20.878;2023-02-01T04:46:28;10.20;;;1.40;;
50681;SDS011;36779;52.168;20.878;2023-02-01T04:48:59;10.60;;;1.40;;
50681;SDS011;36779;52.168;20.878;2023-02-01T04:51:29;7.10;;;1.60;;
50681;SDS011;36779;52.168;20.878;2023-02-01T04:53:59;10.60;;;1.70;;
50681;SDS011;36779;52.168;20.878;2023-02-01T04:56:28;13.90;;;1.70;;
50681;SDS011;36779;52.168;20.878;2023-02-01T04:58:57;6.70;;;1.70;;
50681;SDS011;36779;52.168;20.878;2023-02-01T05:01:27;10.20;;;1.70;;
50681;SDS011;36779;52.168;20.878;2023-02-01T05:03:59;12.70;;;2.20;;
50681;SDS011;36779;52.168;20.878;2023-02-01T05:06:28;14.30;;;1.90;;
50681;SDS011;36779;52.168;20.878;2023-02-01T05:08:58;8.80;;;1.90;;
50681;SDS011;36779;52.168;20.878;2023-02-01T05:11:30;7.20;;;1.70;;
50681;SDS011;36779;52.168;20.878;2023-02-01T05:14:18;9.50;;;1.70;;
50681;SDS011;36779;52.168;20.878;2023-02-01T05:16:46;6.20;;;1.50;;
50681;SDS011;36779;52.168;20.878;2023-02-01T05:19:18;9.60;;;1.80;;
50681;SDS011;36779;52.168;20.878;2023-02-01T05:21:47;11.60;;;2.20;;
50681;SDS011;36779;52.168;20.878;2023-02-01T05:24:17;9.40;;;1.60;;
50681;SDS011;36779;52.168;20.878;2023-02-01T05:26:47;12.90;;;2.40;;
50681;SDS011;36779;52.168;20.878;2023-02-01T05:29:18;10.10;;;1.80;;
50681;SDS011;36779;52.168;20.878;2023-02-01T05:31:47;9.50;;;1.90;;
50681;SDS011;36779;52.168;20.878;2023-02-01T05:34:17;8.00;;;1.50;;
50681;SDS011;36779;52.168;20.878;2023-02-01T05:36:48;10.30;;;2.10;;
50681;SDS011;36779;52.168;20.878;2023-02-01T05:39:17;10.50;;;1.90;;
50681;SDS011;36779;52.168;20.878;2023-02-01T05:41:45;12.40;;;3.10;;
50681;SDS011;36779;52.168;20.878;2023-02-01T05:44:15;6.90;;;1.80;;
50681;SDS011;36779;52.168;20.878;2023-02-01T05:46:44;9.60;;;1.50;;
50681;SDS011;36779;52.168;20.878;2023-02-01T05:49:16;10.00;;;1.40;;
50681;SDS011;36779;52.168;20.878;2023-02-01T05:51:46;10.10;;;1.70;;
50681;SDS011;36779;52.168;20.878;2023-02-01T05:54:15;7.10;;;1.40;;
50681;SDS011;36779;52.168;20.878;2023-02-01T05:56:45;10.20;;;1.30;;
50681;SDS011;36779;52.168;20.878;2023-02-01T05:59:17;11.20;;;1.80;;
50681;SDS011;36779;52.168;20.878;2023-02-01T06:01:46;4.10;;;1.50;;
50681;SDS011;36779;52.168;20.878;2023-02-01T06:04:16;9.50;;;1.90;;
50681;SDS011;36779;52.168;20.878;2023-02-01T06:06:45;9.20;;;2.20;;
50681;SDS011;36779;52.168;20.878;2023-02-01T06:09:15;8.00;;;2.10;;
50681;SDS011;36779;52.168;20.878;2023-02-01T06:11:45;9.50;;;1.60;;
50681;SDS011;36779;52.168;20.878;2023-02-01T06:14:15;9.80;;;1.30;;
50681;SDS011;36779;52.168;20.878;2023-02-01T06:16:49;8.40;;;1.40;;
50681;SDS011;36779;52.168;20.878;2023-02-01T06:19:18;11.80;;;1.60;;
50681;SDS011;36779;52.168;20.878;2023-02-01T06:21:47;17.40;;;5.50;;
50681;SDS011;36779;52.168;20.878;2023-02-01T06:24:17;8.20;;;2.00;;
50681;SDS011;36779;52.168;20.878;2023-02-01T06:26:46;33.50;;;11.20;;
50681;SDS011;36779;52.168;20.878;2023-02-01T06:29:17;10.70;;;2.60;;
50681;SDS011;36779;52.168;20.878;2023-02-01T06:31:46;10.20;;;1.90;;
50681;SDS011;36779;52.168;20.878;2023-02-01T06:34:16;13.00;;;2.20;;
50681;SDS011;36779;52.168;20.878;2023-02-01T06:36:49;13.40;;;1.80;;
50681;SDS011;36779;52.168;20.878;2023-02-01T06:39:21;8.30;;;1.50;;
50681;SDS011;36779;52.168;20.878;2023-02-01T06:41:50;11.50;;;1.60;;
50681;SDS011;36779;52.168;20.878;2023-02-01T06:44:19;10.60;;;1.60;;
50681;SDS011;36779;52.168;20.878;2023-02-01T06:46:49;9.60;;;2.20;;
50681;SDS011;36779;52.168;20.878;2023-02-01T06:49:21;9.50;;;2.40;;
50681;SDS011;36779;52.168;20.878;2023-02-01T06:51:50;16.30;;;3.30;;
50681;SDS011;36779;52.168;20.878;2023-02-01T06:54:20;11.40;;;2.60;;
50681;SDS011;36779;52.168;20.878;2023-02-01T06:56:50;12.10;;;2.30;;
50681;SDS011;36779;52.168;20.878;2023-02-01T06:59:19;9.60;;;1.90;;
50681;SDS011;36779;52.168;20.878;2023-02-01T07:01:50;18.00;;;2.50;;
50681;SDS011;36779;52.168;20.878;2023-02-01T07:04:21;18.80;;;5.30;;
50681;SDS011;36779;52.168;20.878;2023-02-01T07:06:50;29.00;;;7.60;;
50681;SDS011;36779;52.168;20.878;2023-02-01T07:09:20;18.50;;;5.70;;
50681;SDS011;36779;52.168;20.878;2023-02-01T07:11:49;15.00;;;4.10;;
50681;SDS011;36779;52.168;20.878;2023-02-01T07:14:18;15.50;;;5.80;;
50681;SDS011;36779;52.168;20.878;2023-02-01T07:16:48;9.90;;;4.60;;
50681;SDS011;36779;52.168;20.878;2023-02-01T07:19:18;9.40;;;2.50;;
50681;SDS011;36779;52.168;20.878;2023-02-01T07:21:47;12.30;;;3.20;;
50681;SDS011;36779;52.168;20.878;2023-02-01T07:24:16;9.30;;;2.30;;
50681;SDS011;36779;52.168;20.878;2023-02-01T07:26:45;13.80;;;2.70;;
50681;SDS011;36779;52.168;20.878;2023-02-01T07:29:18;7.50;;;1.80;;
50681;SDS011;36779;52.168;20.878;2023-02-01T07:31:51;14.70;;;3.50;;
50681;SDS011;36779;52.168;20.878;2023-02-01T07:34:22;8.20;;;1.70;;
50681;SDS011;36779;52.168;20.878;2023-02-01T07:36:52;7.20;;;1.50;;
50681;SDS011;36779;52.168;20.878;2023-02-01T07:39:22;8.10;;;1.90;;
50681;SDS011;36779;52.168;20.878;2023-02-01T07:41:51;15.30;;;3.70;;
50681;SDS011;36779;52.168;20.878;2023-02-01T07:44:21;9.70;;;1.90;;
50681;SDS011;36779;52.168;20.878;2023-02-01T07:46:50;16.00;;;3.60;;
50681;SDS011;36779;52.168;20.878;2023-02-01T07:49:20;7.50;;;2.30;;
50681;SDS011;36779;52.168;20.878;2023-02-01T07:51:49;7.60;;;2.50;;
50681;SDS011;36779;52.168;20.878;2023-02-01T07:54:19;10.80;;;1.90;;
50681;SDS011;36779;52.168;20.878;2023-02-01T07:56:49;7.90;;;1.60;;
50681;SDS011;36779;52.168;20.878;2023-02-01T07:59:18;10.70;;;1.50;;
50681;SDS011;36779;52.168;20.878;2023-02-01T08:01:47;10.80;;;1.60;;
50681;SDS011;36779;52.168;20.878;2023-02-01T08:04:20;8.70;;;1.30;;
50681;SDS011;36779;52.168;20.878;2023-02-01T08:06:48;9.40;;;1.50;;
50681;SDS011;36779;52.168;20.878;2023-02-01T08:09:17;9.20;;;1.80;;
50681;SDS011;36779;52.168;20.878;2023-02-01T08:11:46;9.80;;;2.20;;
50681;SDS011;36779;52.168;20.878;2023-02-01T08:14:15;13.00;;;2.50;;
50681;SDS011;36779;52.168;20.878;2023-02-01T08:16:44;10.90;;;1.70;;
50681;SDS011;36779;52.168;20.878;2023-02-01T08:19:13;14.10;;;4.00;;
50681;SDS011;36779;52.168;20.878;2023-02-01T08:21:44;8.40;;;2.30;;
50681;SDS011;36779;52.168;20.878;2023-02-01T08:24:16;15.30;;;3.50;;
50681;SDS011;36779;52.168;20.878;2023-02-01T08:26:44;16.30;;;4.10;;
50681;SDS011;36779;52.168;20.878;2023-02-01T08:29:14;15.40;;;3.30;;
50681;SDS011;36779;52.168;20.878;2023-02-01T08:31:45;7.00;;;1.90;;
50681;SDS011;36779;52.168;20.878;2023-02-01T08:34:14;8.40;;;1.90;;
50681;SDS011;36779;52.168;20.878;2023-02-01T08:36:46;11.50;;;2.00;;
50681;SDS011;36779;52.168;20.878;2023-02-01T08:39:15;7.40;;;1.40;;
50681;SDS011;36779;52.168;20.878;2023-02-01T08:41:44;6.30;;;1.70;;
50681;SDS011;36779;52.168;20.878;2023-02-01T08:44:35;8.70;;;2.00;;
50681;SDS011;36779;52.168;20.878;2023-02-01T08:47:04;8.80;;;1.70;;
50681;SDS011;36779;52.168;20.878;2023-02-01T08:49:34;9.30;;;2.10;;
50681;SDS011;36779;52.168;20.878;2023-02-01T08:52:03;12.40;;;3.20;;
50681;SDS011;36779;52.168;20.878;2023-02-01T08:54:44;9.20;;;2.80;;
50681;SDS011;36779;52.168;20.878;2023-02-01T08:57:14;8.40;;;2.10;;
50681;SDS011;36779;52.168;20.878;2023-02-01T08:59:44;13.30;;;2.80;;
50681;SDS011;36779;52.168;20.878;2023-02-01T09:02:13;10.90;;;2.20;;
50681;SDS011;36779;52.168;20.878;2023-02-01T09:04:43;17.20;;;2.90;;
50681;SDS011;36779;52.168;20.878;2023-02-01T09:07:13;5.60;;;1.10;;
50681;SDS011;36779;52.168;20.878;2023-02-01T09:09:45;13.60;;;2.80;;
50681;SDS011;36779;52.168;20.878;2023-02-01T09:12:15;8.40;;;2.40;;
50681;SDS011;36779;52.168;20.878;2023-02-01T09:14:44;11.90;;;2.40;;
50681;SDS011;36779;52.168;20.878;2023-02-01T09:17:14;10.10;;;2.00;;
50681;SDS011;36779;52.168;20.878;2023-02-01T09:19:43;8.00;;;1.70;;
50681;SDS011;36779;52.168;20.878;2023-02-01T09:22:12;8.20;;;2.30;;
50681;SDS011;36779;52.168;20.878;2023-02-01T09:24:44;9.20;;;2.20;;
50681;SDS011;36779;52.168;20.878;2023-02-01T09:27:14;8.70;;;1.80;;
50681;SDS011;36779;52.168;20.878;2023-02-01T09:29:43;7.40;;;2.00;;
50681;SDS011;36779;52.168;20.878;2023-02-01T09:32:12;12.40;;;2.80;;
50681;SDS011;36779;52.168;20.878;2023-02-01T09:34:41;11.00;;;2.60;;
50681;SDS011;36779;52.168;20.878;2023-02-01T09:37:10;9.10;;;1.80;;
50681;SDS011;36779;52.168;20.878;2023-02-01T09:39:39;17.60;;;5.30;;
50681;SDS011;36779;52.168;20.878;2023-02-01T09:42:21;9.40;;;2.10;;
50681;SDS011;36779;52.168;20.878;2023-02-01T09:45:09;8.10;;;2.20;;
50681;SDS011;36779;52.168;20.878;2023-02-01T09:47:47;10.60;;;2.30;;
50681;SDS011;36779;52.168;20.878;2023-02-01T09:50:22;6.80;;;2.00;;
50681;SDS011;36779;52.168;20.878;2023-02-01T09:53:01;10.30;;;2.00;;
50681;SDS011;36779;52.168;20.878;2023-02-01T09:55:34;9.50;;;2.00;;
50681;SDS011;36779;52.168;20.878;2023-02-01T09:58:13;18.50;;;3.40;;
50681;SDS011;36779;52.168;20.878;2023-02-01T10:00:50;10.60;;;1.80;;
50681;SDS011;36779;52.168;20.878;2023-02-01T10:03:21;7.50;;;1.80;;
50681;SDS011;36779;52.168;20.878;2023-02-01T10:06:01;10.20;;;2.40;;
50681;SDS011;36779;52.168;20.878;2023-02-01T10:11:35;6.60;;;1.70;;
50681;SDS011;36779;52.168;20.878;2023-02-01T10:17:18;10.20;;;1.80;;
50681;SDS011;36779;52.168;20.878;2023-02-01T10:20:03;8.50;;;2.40;;
50681;SDS011;36779;52.168;20.878;2023-02-01T10:22:41;8.80;;;2.30;;
50681;SDS011;36779;52.168;20.878;2023-02-01T10:25:34;7.60;;;1.50;;
50681;SDS011;36779;52.168;20.878;2023-02-01T10:30:41;9.90;;;2.00;;
50681;SDS011;36779;52.168;20.878;2023-02-01T10:33:16;12.60;;;4.30;;
50681;SDS011;36779;52.168;20.878;2023-02-01T10:35:51;16.00;;;3.50;;
50681;SDS011;36779;52.168;20.878;2023-02-01T10:38:27;11.70;;;3.10;;
50681;SDS011;36779;52.168;20.878;2023-02-01T10:40:59;13.30;;;4.40;;
50681;SDS011;36779;52.168;20.878;2023-02-01T10:43:30;14.40;;;3.20;;
50681;SDS011;36779;52.168;20.878;2023-02-01T10:46:01;11.90;;;3.30;;
50681;SDS011;36779;52.168;20.878;2023-02-01T10:48:29;13.50;;;2.70;;
50681;SDS011;36779;52.168;20.878;2023-02-01T10:51:00;12.80;;;3.20;;
50681;SDS011;36779;52.168;20.878;2023-02-01T10:53:41;19.90;;;7.10;;
50681;SDS011;36779;52.168;20.878;2023-02-01T10:56:18;22.40;;;5.70;;
50681;SDS011;36779;52.168;20.878;2023-02-01T10:58:51;11.30;;;2.80;;
50681;SDS011;36779;52.168;20.878;2023-02-01T11:01:28;9.30;;;3.60;;
50681;SDS011;36779;52.168;20.878;2023-02-01T11:04:01;9.50;;;4.10;;
50681;SDS011;36779;52.168;20.878;2023-02-01T11:06:33;16.00;;;6.30;;
50681;SDS011;36779;52.168;20.878;2023-02-01T11:09:10;14.30;;;4.20;;
50681;SDS011;36779;52.168;20.878;2023-02-01T11:11:54;10.40;;;2.20;;
50681;SDS011;36779;52.168;20.878;2023-02-01T11:14:32;12.70;;;2.30;;
50681;SDS011;36779;52.168;20.878;2023-02-01T11:17:16;14.00;;;2.40;;
50681;SDS011;36779;52.168;20.878;2023-02-01T11:19:57;12.80;;;2.40;;
50681;SDS011;36779;52.168;20.878;2023-02-01T11:22:28;14.10;;;2.90;;
50681;SDS011;36779;52.168;20.878;2023-02-01T11:24:59;12.20;;;2.50;;
50681;SDS011;36779;52.168;20.878;2023-02-01T11:27:35;11.30;;;2.90;;
50681;SDS011;36779;52.168;20.878;2023-02-01T11:30:22;6.80;;;2.00;;
50681;SDS011;36779;52.168;20.878;2023-02-01T11:33:00;8.30;;;2.30;;
50681;SDS011;36779;52.168;20.878;2023-02-01T11:35:35;11.40;;;3.30;;
50681;SDS011;36779;52.168;20.878;2023-02-01T11:38:11;12.60;;;3.20;;
50681;SDS011;36779;52.168;20.878;2023-02-01T11:40:48;6.80;;;1.70;;
50681;SDS011;36779;52.168;20.878;2023-02-01T11:43:19;13.50;;;2.40;;
50681;SDS011;36779;52.168;20.878;2023-02-01T11:45:54;9.10;;;2.50;;
50681;SDS011;36779;52.168;20.878;2023-02-01T11:48:26;15.20;;;3.50;;
50681;SDS011;36779;52.168;20.878;2023-02-01T11:51:04;16.70;;;3.40;;
50681;SDS011;36779;52.168;20.878;2023-02-01T11:56:49;10.10;;;3.30;;
50681;SDS011;36779;52.168;20.878;2023-02-01T11:59:32;13.40;;;3.60;;
50681;SDS011;36779;52.168;20.878;2023-02-01T12:05:27;12.80;;;2.60;;
50681;SDS011;36779;52.168;20.878;2023-02-01T12:08:10;17.90;;;4.30;;
50681;SDS011;36779;52.168;20.878;2023-02-01T12:11:08;18.20;;;4.60;;
50681;SDS011;36779;52.168;20.878;2023-02-01T12:14:01;14.70;;;4.50;;
50681;SDS011;36779;52.168;20.878;2023-02-01T12:16:46;15.90;;;4.30;;
50681;SDS011;36779;52.168;20.878;2023-02-01T12:19:28;14.10;;;3.20;;
50681;SDS011;36779;52.168;20.878;2023-02-01T12:22:18;16.70;;;3.40;;
50681;SDS011;36779;52.168;20.878;2023-02-01T12:25:00;17.10;;;2.50;;
50681;SDS011;36779;52.168;20.878;2023-02-01T12:30:46;12.10;;;2.90;;
50681;SDS011;36779;52.168;20.878;2023-02-01T12:33:39;9.80;;;2.80;;
50681;SDS011;36779;52.168;20.878;2023-02-01T12:36:23;12.80;;;3.20;;
50681;SDS011;36779;52.168;20.878;2023-02-01T12:39:01;19.20;;;4.00;;
50681;SDS011;36779;52.168;20.878;2023-02-01T12:41:44;16.50;;;4.40;;
50681;SDS011;36779;52.168;20.878;2023-02-01T12:44:20;14.50;;;3.40;;
50681;SDS011;36779;52.168;20.878;2023-02-01T12:46:57;19.40;;;5.00;;
50681;SDS011;36779;52.168;20.878;2023-02-01T12:49:44;19.00;;;5.00;;
50681;SDS011;36779;52.168;20.878;2023-02-01T12:52:18;23.50;;;6.50;;
50681;SDS011;36779;52.168;20.878;2023-02-01T12:54:55;13.90;;;4.80;;
50681;SDS011;36779;52.168;20.878;2023-02-01T12:57:30;15.50;;;3.70;;
50681;SDS011;36779;52.168;20.878;2023-02-01T13:00:06;15.80;;;5.40;;
50681;SDS011;36779;52.168;20.878;2023-02-01T13:02:52;15.90;;;4.40;;
50681;SDS011;36779;52.168;20.878;2023-02-01T13:05:31;20.80;;;5.00;;
50681;SDS011;36779;52.168;20.878;2023-02-01T13:08:15;18.90;;;5.60;;
50681;SDS011;36779;52.168;20.878;2023-02-01T13:10:48;23.90;;;5.40;;
50681;SDS011;36779;52.168;20.878;2023-02-01T13:13:29;18.10;;;4.70;;
50681;SDS011;36779;52.168;20.878;2023-02-01T13:16:12;18.50;;;4.00;;
50681;SDS011;36779;52.168;20.878;2023-02-01T13:18:46;21.80;;;4.10;;
50681;SDS011;36779;52.168;20.878;2023-02-01T13:21:21;18.20;;;4.60;;
50681;SDS011;36779;52.168;20.878;2023-02-01T13:23:55;16.60;;;4.80;;
50681;SDS011;36779;52.168;20.878;2023-02-01T13:26:25;10.30;;;3.10;;
50681;SDS011;36779;52.168;20.878;2023-02-01T13:28:57;17.10;;;4.60;;
50681;SDS011;36779;52.168;20.878;2023-02-01T13:31:34;10.20;;;3.40;;
50681;SDS011;36779;52.168;20.878;2023-02-01T13:37:39;17.50;;;3.80;;
50681;SDS011;36779;52.168;20.878;2023-02-01T13:40:28;13.70;;;3.40;;
50681;SDS011;36779;52.168;20.878;2023-02-01T13:43:06;13.30;;;3.30;;
50681;SDS011;36779;52.168;20.878;2023-02-01T13:45:43;15.00;;;3.50;;
50681;SDS011;36779;52.168;20.878;2023-02-01T13:48:20;12.60;;;3.30;;
50681;SDS011;36779;52.168;20.878;2023-02-01T13:50:57;20.50;;;4.70;;
50681;SDS011;36779;52.168;20.878;2023-02-01T13:53:29;32.90;;;9.70;;
50681;SDS011;36779;52.168;20.878;2023-02-01T13:56:00;34.70;;;8.80;;
50681;SDS011;36779;52.168;20.878;2023-02-01T13:58:35;31.10;;;7.90;;
50681;SDS011;36779;52.168;20.878;2023-02-01T14:06:39;9.60;;;3.70;;
50681;SDS011;36779;52.168;20.878;2023-02-01T14:09:34;11.40;;;4.00;;
50681;SDS011;36779;52.168;20.878;2023-02-01T14:15:32;14.90;;;4.00;;
50681;SDS011;36779;52.168;20.878;2023-02-01T14:18:02;18.50;;;4.60;;
50681;SDS011;36779;52.168;20.878;2023-02-01T14:21:15;14.00;;;4.70;;
50681;SDS011;36779;52.168;20.878;2023-02-01T14:23:58;12.40;;;4.30;;
50681;SDS011;36779;52.168;20.878;2023-02-01T14:26:43;14.50;;;3.70;;
50681;SDS011;36779;52.168;20.878;2023-02-01T14:29:21;10.00;;;3.10;;
50681;SDS011;36779;52.168;20.878;2023-02-01T14:31:59;8.20;;;2.70;;
50681;SDS011;36779;52.168;20.878;2023-02-01T14:34:38;10.70;;;3.60;;
50681;SDS011;36779;52.168;20.878;2023-02-01T14:37:24;12.70;;;3.50;;
50681;SDS011;36779;52.168;20.878;2023-02-01T14:40:03;10.20;;;3.30;;
50681;SDS011;36779;52.168;20.878;2023-02-01T14:42:44;9.80;;;3.30;;
50681;SDS011;36779;52.168;20.878;2023-02-01T14:51:14;8.10;;;3.40;;
50681;SDS011;36779;52.168;20.878;2023-02-01T14:53:45;9.10;;;3.40;;
50681;SDS011;36779;52.168;20.878;2023-02-01T14:56:15;10.60;;;3.30;;
50681;SDS011;36779;52.168;20.878;2023-02-01T14:58:51;10.30;;;3.40;;
50681;SDS011;36779;52.168;20.878;2023-02-01T15:01:25;11.10;;;3.40;;
50681;SDS011;36779;52.168;20.878;2023-02-01T15:04:01;11.10;;;3.30;;
50681;SDS011;36779;52.168;20.878;2023-02-01T15:06:37;8.10;;;3.10;;
50681;SDS011;36779;52.168;20.878;2023-02-01T15:09:09;12.80;;;3.80;;
50681;SDS011;36779;52.168;20.878;2023-02-01T15:11:55;9.30;;;4.30;;
50681;SDS011;36779;52.168;20.878;2023-02-01T15:14:25;10.20;;;4.50;;
50681;SDS011;36779;52.168;20.878;2023-02-01T15:16:57;8.70;;;3.50;;
50681;SDS011;36779;52.168;20.878;2023-02-01T15:19:29;20.50;;;9.10;;
50681;SDS011;36779;52.168;20.878;2023-02-01T15:22:00;13.00;;;4.50;;
50681;SDS011;36779;52.168;20.878;2023-02-01T15:24:30;9.90;;;4.40;;
50681;SDS011;36779;52.168;20.878;2023-02-01T15:27:04;8.80;;;3.80;;
50681;SDS011;36779;52.168;20.878;2023-02-01T15:29:34;9.90;;;4.40;;
50681;SDS011;36779;52.168;20.878;2023-02-01T15:32:04;12.10;;;4.90;;
50681;SDS011;36779;52.168;20.878;2023-02-01T15:34:46;16.80;;;5.10;;
50681;SDS011;36779;52.168;20.878;2023-02-01T15:37:20;12.70;;;4.00;;
50681;SDS011;36779;52.168;20.878;2023-02-01T15:40:17;15.80;;;5.10;;
50681;SDS011;36779;52.168;20.878;2023-02-01T15:42:51;10.50;;;4.70;;
50681;SDS011;36779;52.168;20.878;2023-02-01T15:45:22;9.00;;;4.10;;
50681;SDS011;36779;52.168;20.878;2023-02-01T15:47:55;11.30;;;3.70;;
50681;SDS011;36779;52.168;20.878;2023-02-01T15:50:32;5.40;;;2.90;;